New York, NY

11:43 AM EST on December 21, 2014 (GMT -0500)
Murray Hill | Change Station
CLOSE
Current Station
Personal Weather Station
Location: New York, NY
Elevation: 98 ft
Nearby Weather Stations

Elev 98 ft 40.75 °N, 73.98 °W | Updated 7 seconds ago

Overcast
Overcast
34.0 °F
Feels Like 34 °F
N
3.0
Wind Variable Wind from North
Gusts 8.0 mph

Today
High -- | Low -- °F
--% Chance of Precip.
Yesterday
High -- | Low -- °F
Precip. -- in
7:16 AM 4:31 PM
Waning Crescent, 0% visible
Pressure 30.32 in
Visibility 8.0 miles
Clouds Overcast 1400 ft
Windchill 34 °F
Dew Point 28 °F
Humidity 79%
Rainfall 0.00 in
Snow Depth Not available.
UV 1 out of 12
Pollen .10 out of 12
Air Quality Not available.
Flu Activity Not available.
METAR KNYC 211551Z AUTO 30006KT 8SM OVC014 00/M04 A3033 RMK AO2 SLP265 T00001044 $

More Conditions Fewer Conditions

Pressure 30.32 in
Visibility 8.0 miles
Clouds Overcast 1400 ft
Windchill 34 °F
Dew Point 28 °F
Humidity 79%
Rainfall 0.00 in
Snow Depth Not available.
UV 1 out of 12
Pollen .10 out of 12
Air Quality Not available.
Flu Activity Not available.
METAR KNYC 211551Z AUTO 30006KT 8SM OVC014 00/M04 A3033 RMK AO2 SLP265 T00001044 $

More Conditions Fewer Conditions

10-Day Weather Forecast

Almanac

Astronomy

Dec. 21, 2014 Rise Set
Actual Time
Civil Twilight
Nautical Twilight
Astronomical Twilight
Moon
Length of Visible Light
Length of Day
Tomorrow will be .
, % of the Moon is Illuminated

Today's Extremes

State Highs State Lows

Community

WunderPhotos

Upload Photos

1,779,433 photos uploaded!

WunderBlogs® & News

Nearby

Air Quality

  Air Quality AQ Index Pollutant
Not available.

Snow Depth

Station Depth Elevation

Earthquake Activity

City Distance Mag. Time & Date
Minimum magnitude displayed is 2.5.

Coastal Water Temperatures

Place Temperature

Nearby Weather Stations